sensor_id;sensor_type;location;lat;lon;timestamp;temperature;humidity
2957;DHT22;1488;51.548;7.222;2022-09-14T00:00:11;27.10;72.20
2957;DHT22;1488;51.548;7.222;2022-09-14T00:02:38;27.10;72.10
2957;DHT22;1488;51.548;7.222;2022-09-14T00:05:05;27.10;72.10
2957;DHT22;1488;51.548;7.222;2022-09-14T00:07:32;27.10;72.10
2957;DHT22;1488;51.548;7.222;2022-09-14T00:10:00;27.10;72.10
2957;DHT22;1488;51.548;7.222;2022-09-14T00:12:27;27.10;72.10
2957;DHT22;1488;51.548;7.222;2022-09-14T00:14:54;27.10;72.00
2957;DHT22;1488;51.548;7.222;2022-09-14T00:17:21;27.10;72.00
2957;DHT22;1488;51.548;7.222;2022-09-14T00:19:47;27.10;72.00
2957;DHT22;1488;51.548;7.222;2022-09-14T00:22:14;27.10;72.00
2957;DHT22;1488;51.548;7.222;2022-09-14T00:24:41;27.10;72.00
2957;DHT22;1488;51.548;7.222;2022-09-14T00:27:09;27.10;71.90
2957;DHT22;1488;51.548;7.222;2022-09-14T00:29:36;27.10;71.90
2957;DHT22;1488;51.548;7.222;2022-09-14T00:32:03;27.10;71.90
2957;DHT22;1488;51.548;7.222;2022-09-14T00:34:30;27.10;71.90
2957;DHT22;1488;51.548;7.222;2022-09-14T00:36:57;27.10;71.90
2957;DHT22;1488;51.548;7.222;2022-09-14T00:39:24;27.00;71.80
2957;DHT22;1488;51.548;7.222;2022-09-14T00:41:52;27.10;71.90
2957;DHT22;1488;51.548;7.222;2022-09-14T00:45:03;27.10;71.90
2957;DHT22;1488;51.548;7.222;2022-09-14T00:47:33;27.10;71.80
2957;DHT22;1488;51.548;7.222;2022-09-14T00:50:02;27.00;71.80
2957;DHT22;1488;51.548;7.222;2022-09-14T00:52:32;27.00;71.80
2957;DHT22;1488;51.548;7.222;2022-09-14T00:55:03;27.10;71.80
2957;DHT22;1488;51.548;7.222;2022-09-14T00:57:34;27.10;71.80
2957;DHT22;1488;51.548;7.222;2022-09-14T01:00:06;27.10;71.80
2957;DHT22;1488;51.548;7.222;2022-09-14T01:02:33;27.10;71.80
2957;DHT22;1488;51.548;7.222;2022-09-14T01:05:00;27.10;71.70
2957;DHT22;1488;51.548;7.222;2022-09-14T01:07:38;27.10;71.70
2957;DHT22;1488;51.548;7.222;2022-09-14T01:10:16;27.10;71.70
2957;DHT22;1488;51.548;7.222;2022-09-14T01:12:51;27.00;71.60
2957;DHT22;1488;51.548;7.222;2022-09-14T01:15:26;27.10;71.70
2957;DHT22;1488;51.548;7.222;2022-09-14T01:17:59;27.00;71.60
2957;DHT22;1488;51.548;7.222;2022-09-14T01:20:33;27.00;71.60
2957;DHT22;1488;51.548;7.222;2022-09-14T01:23:07;27.00;71.60
2957;DHT22;1488;51.548;7.222;2022-09-14T01:25:50;27.00;71.60
2957;DHT22;1488;51.548;7.222;2022-09-14T01:28:28;27.00;71.60
2957;DHT22;1488;51.548;7.222;2022-09-14T01:31:00;27.00;72.40
2957;DHT22;1488;51.548;7.222;2022-09-14T01:33:32;27.00;71.60
2957;DHT22;1488;51.548;7.222;2022-09-14T01:36:02;27.00;71.60
2957;DHT22;1488;51.548;7.222;2022-09-14T01:38:34;27.00;71.70
2957;DHT22;1488;51.548;7.222;2022-09-14T01:41:06;27.00;71.60
2957;DHT22;1488;51.548;7.222;2022-09-14T01:43:38;27.00;71.60
2957;DHT22;1488;51.548;7.222;2022-09-14T01:46:09;27.00;71.60
2957;DHT22;1488;51.548;7.222;2022-09-14T01:48:40;27.00;71.60
2957;DHT22;1488;51.548;7.222;2022-09-14T01:51:11;27.00;71.60
2957;DHT22;1488;51.548;7.222;2022-09-14T01:53:41;27.00;71.60
2957;DHT22;1488;51.548;7.222;2022-09-14T01:56:15;27.00;71.60
2957;DHT22;1488;51.548;7.222;2022-09-14T01:58:49;27.00;71.50
2957;DHT22;1488;51.548;7.222;2022-09-14T02:01:20;27.00;71.70
2957;DHT22;1488;51.548;7.222;2022-09-14T02:03:51;27.00;71.70
2957;DHT22;1488;51.548;7.222;2022-09-14T02:06:23;27.00;71.70
2957;DHT22;1488;51.548;7.222;2022-09-14T02:08:51;27.00;72.60
2957;DHT22;1488;51.548;7.222;2022-09-14T02:11:19;27.00;71.70
2957;DHT22;1488;51.548;7.222;2022-09-14T02:13:47;27.00;71.60
2957;DHT22;1488;51.548;7.222;2022-09-14T02:16:14;27.00;71.70
2957;DHT22;1488;51.548;7.222;2022-09-14T02:18:40;27.00;71.70
2957;DHT22;1488;51.548;7.222;2022-09-14T02:21:11;27.00;71.70
2957;DHT22;1488;51.548;7.222;2022-09-14T02:23:38;27.00;71.70
2957;DHT22;1488;51.548;7.222;2022-09-14T02:26:05;27.00;71.70
2957;DHT22;1488;51.548;7.222;2022-09-14T02:28:32;27.00;71.60
2957;DHT22;1488;51.548;7.222;2022-09-14T02:31:07;27.00;72.40
2957;DHT22;1488;51.548;7.222;2022-09-14T02:33:42;27.00;72.40
2957;DHT22;1488;51.548;7.222;2022-09-14T02:36:16;27.00;71.60
2957;DHT22;1488;51.548;7.222;2022-09-14T02:38:50;27.00;71.60
2957;DHT22;1488;51.548;7.222;2022-09-14T02:41:24;27.00;71.50
2957;DHT22;1488;51.548;7.222;2022-09-14T02:43:57;27.00;71.50
2957;DHT22;1488;51.548;7.222;2022-09-14T02:46:34;27.00;71.50
2957;DHT22;1488;51.548;7.222;2022-09-14T02:49:08;27.00;71.40
2957;DHT22;1488;51.548;7.222;2022-09-14T02:51:42;27.00;71.40
2957;DHT22;1488;51.548;7.222;2022-09-14T02:54:16;27.00;72.20
2957;DHT22;1488;51.548;7.222;2022-09-14T02:56:44;27.00;71.40
2957;DHT22;1488;51.548;7.222;2022-09-14T02:59:11;27.00;71.40
2957;DHT22;1488;51.548;7.222;2022-09-14T03:01:39;27.00;71.30
2957;DHT22;1488;51.548;7.222;2022-09-14T03:04:06;26.90;71.30
2957;DHT22;1488;51.548;7.222;2022-09-14T03:06:33;27.00;71.30
2957;DHT22;1488;51.548;7.222;2022-09-14T03:09:00;27.00;71.30
2957;DHT22;1488;51.548;7.222;2022-09-14T03:11:27;27.00;71.20
2957;DHT22;1488;51.548;7.222;2022-09-14T03:13:54;27.00;71.20
2957;DHT22;1488;51.548;7.222;2022-09-14T03:16:21;27.00;71.20
2957;DHT22;1488;51.548;7.222;2022-09-14T03:18:49;27.00;71.20
2957;DHT22;1488;51.548;7.222;2022-09-14T03:21:16;27.00;71.10
2957;DHT22;1488;51.548;7.222;2022-09-14T03:23:45;27.00;71.10
2957;DHT22;1488;51.548;7.222;2022-09-14T03:26:14;27.00;71.10
2957;DHT22;1488;51.548;7.222;2022-09-14T03:28:42;27.00;71.20
2957;DHT22;1488;51.548;7.222;2022-09-14T03:31:10;27.00;71.20
2957;DHT22;1488;51.548;7.222;2022-09-14T03:33:38;26.90;71.20
2957;DHT22;1488;51.548;7.222;2022-09-14T03:36:10;26.90;71.20
2957;DHT22;1488;51.548;7.222;2022-09-14T03:38:38;27.00;71.20
2957;DHT22;1488;51.548;7.222;2022-09-14T03:41:08;27.00;71.30
2957;DHT22;1488;51.548;7.222;2022-09-14T03:43:34;27.00;71.40
2957;DHT22;1488;51.548;7.222;2022-09-14T03:46:04;26.90;71.30
2957;DHT22;1488;51.548;7.222;2022-09-14T03:48:31;27.00;71.40
2957;DHT22;1488;51.548;7.222;2022-09-14T03:50:59;26.90;71.40
2957;DHT22;1488;51.548;7.222;2022-09-14T03:53:27;26.90;71.40
2957;DHT22;1488;51.548;7.222;2022-09-14T03:55:54;26.90;71.50
2957;DHT22;1488;51.548;7.222;2022-09-14T03:58:22;26.90;71.50
2957;DHT22;1488;51.548;7.222;2022-09-14T04:00:49;26.90;71.50
2957;DHT22;1488;51.548;7.222;2022-09-14T04:03:16;26.90;71.60
2957;DHT22;1488;51.548;7.222;2022-09-14T04:05:53;26.90;71.60
2957;DHT22;1488;51.548;7.222;2022-09-14T04:08:20;27.00;71.60
2957;DHT22;1488;51.548;7.222;2022-09-14T04:10:48;26.90;71.70
2957;DHT22;1488;51.548;7.222;2022-09-14T04:13:15;26.90;71.70
2957;DHT22;1488;51.548;7.222;2022-09-14T04:15:42;26.90;71.80
2957;DHT22;1488;51.548;7.222;2022-09-14T04:18:09;26.90;71.80
2957;DHT22;1488;51.548;7.222;2022-09-14T04:20:36;26.90;71.90
2957;DHT22;1488;51.548;7.222;2022-09-14T04:23:04;26.90;71.90
2957;DHT22;1488;51.548;7.222;2022-09-14T04:25:31;26.90;71.90
2957;DHT22;1488;51.548;7.222;2022-09-14T04:27:59;26.90;71.90
2957;DHT22;1488;51.548;7.222;2022-09-14T04:30:26;26.90;71.90
2957;DHT22;1488;51.548;7.222;2022-09-14T04:32:53;26.90;72.00
2957;DHT22;1488;51.548;7.222;2022-09-14T04:35:20;26.90;71.90
2957;DHT22;1488;51.548;7.222;2022-09-14T04:37:47;26.90;71.90
2957;DHT22;1488;51.548;7.222;2022-09-14T04:40:14;26.90;72.00
2957;DHT22;1488;51.548;7.222;2022-09-14T04:42:41;26.90;72.00
2957;DHT22;1488;51.548;7.222;2022-09-14T04:45:10;26.90;72.00
2957;DHT22;1488;51.548;7.222;2022-09-14T04:47:37;26.90;72.00
2957;DHT22;1488;51.548;7.222;2022-09-14T04:50:04;26.90;72.00
2957;DHT22;1488;51.548;7.222;2022-09-14T04:52:31;26.90;72.00
2957;DHT22;1488;51.548;7.222;2022-09-14T04:54:58;26.90;72.10
2957;DHT22;1488;51.548;7.222;2022-09-14T04:57:25;26.90;72.20
2957;DHT22;1488;51.548;7.222;2022-09-14T04:59:52;26.90;72.10
2957;DHT22;1488;51.548;7.222;2022-09-14T05:02:20;26.90;72.10
2957;DHT22;1488;51.548;7.222;2022-09-14T05:04:47;26.90;72.10
2957;DHT22;1488;51.548;7.222;2022-09-14T05:07:13;26.90;72.10
2957;DHT22;1488;51.548;7.222;2022-09-14T05:09:40;26.90;72.10
2957;DHT22;1488;51.548;7.222;2022-09-14T05:12:08;26.90;72.10
2957;DHT22;1488;51.548;7.222;2022-09-14T05:14:34;26.90;72.20
2957;DHT22;1488;51.548;7.222;2022-09-14T05:17:01;26.90;72.20
2957;DHT22;1488;51.548;7.222;2022-09-14T05:19:30;26.90;72.20
2957;DHT22;1488;51.548;7.222;2022-09-14T05:25:25;26.90;72.10
2957;DHT22;1488;51.548;7.222;2022-09-14T05:27:52;26.80;72.30
2957;DHT22;1488;51.548;7.222;2022-09-14T05:30:18;26.80;72.30
2957;DHT22;1488;51.548;7.222;2022-09-14T05:32:45;26.80;72.30
2957;DHT22;1488;51.548;7.222;2022-09-14T05:35:13;26.90;72.30
2957;DHT22;1488;51.548;7.222;2022-09-14T05:37:40;26.90;72.30
2957;DHT22;1488;51.548;7.222;2022-09-14T05:40:08;26.80;73.10
2957;DHT22;1488;51.548;7.222;2022-09-14T05:42:35;26.80;72.30
2957;DHT22;1488;51.548;7.222;2022-09-14T05:45:02;26.80;72.20
2957;DHT22;1488;51.548;7.222;2022-09-14T05:47:30;26.80;72.20
2957;DHT22;1488;51.548;7.222;2022-09-14T05:49:56;26.80;72.30
2957;DHT22;1488;51.548;7.222;2022-09-14T05:52:25;26.80;72.30
2957;DHT22;1488;51.548;7.222;2022-09-14T05:54:54;26.90;72.30
2957;DHT22;1488;51.548;7.222;2022-09-14T05:57:21;26.90;72.30
2957;DHT22;1488;51.548;7.222;2022-09-14T05:59:48;26.90;72.30
2957;DHT22;1488;51.548;7.222;2022-09-14T06:02:14;26.90;72.30
2957;DHT22;1488;51.548;7.222;2022-09-14T06:04:41;26.90;72.30
2957;DHT22;1488;51.548;7.222;2022-09-14T06:07:08;26.90;72.40
2957;DHT22;1488;51.548;7.222;2022-09-14T06:09:36;26.90;72.50
2957;DHT22;1488;51.548;7.222;2022-09-14T06:12:03;26.90;72.60
2957;DHT22;1488;51.548;7.222;2022-09-14T06:14:30;26.90;72.70
2957;DHT22;1488;51.548;7.222;2022-09-14T06:16:57;26.90;72.70
2957;DHT22;1488;51.548;7.222;2022-09-14T06:19:24;26.90;72.70
2957;DHT22;1488;51.548;7.222;2022-09-14T06:21:50;26.90;72.70
2957;DHT22;1488;51.548;7.222;2022-09-14T06:24:17;27.10;72.90
2957;DHT22;1488;51.548;7.222;2022-09-14T06:26:45;26.90;72.80
2957;DHT22;1488;51.548;7.222;2022-09-14T06:29:12;26.90;72.80
2957;DHT22;1488;51.548;7.222;2022-09-14T06:31:39;27.00;72.90
2957;DHT22;1488;51.548;7.222;2022-09-14T06:34:06;26.90;72.90
2957;DHT22;1488;51.548;7.222;2022-09-14T06:36:32;26.90;72.90
2957;DHT22;1488;51.548;7.222;2022-09-14T06:38:59;26.90;72.90
2957;DHT22;1488;51.548;7.222;2022-09-14T06:41:28;27.00;73.00
2957;DHT22;1488;51.548;7.222;2022-09-14T06:43:59;27.00;73.00
2957;DHT22;1488;51.548;7.222;2022-09-14T06:46:28;26.90;72.80
2957;DHT22;1488;51.548;7.222;2022-09-14T06:49:01;26.90;72.70
2957;DHT22;1488;51.548;7.222;2022-09-14T07:20:46;26.80;73.00
2957;DHT22;1488;51.548;7.222;2022-09-14T07:23:12;26.70;73.10
2957;DHT22;1488;51.548;7.222;2022-09-14T07:25:40;26.70;73.90
2957;DHT22;1488;51.548;7.222;2022-09-14T07:28:07;26.80;73.10
2957;DHT22;1488;51.548;7.222;2022-09-14T07:30:35;26.70;74.10
2957;DHT22;1488;51.548;7.222;2022-09-14T07:33:02;26.70;74.20
2957;DHT22;1488;51.548;7.222;2022-09-14T07:35:30;26.70;73.30
2957;DHT22;1488;51.548;7.222;2022-09-14T07:37:58;26.80;73.30
2957;DHT22;1488;51.548;7.222;2022-09-14T07:40:25;26.70;73.70
2957;DHT22;1488;51.548;7.222;2022-09-14T07:42:53;26.70;73.50
2957;DHT22;1488;51.548;7.222;2022-09-14T07:45:20;26.80;73.50
2957;DHT22;1488;51.548;7.222;2022-09-14T07:47:47;26.80;73.70
2957;DHT22;1488;51.548;7.222;2022-09-14T07:50:15;26.80;73.70
2957;DHT22;1488;51.548;7.222;2022-09-14T07:52:42;26.80;73.60
2957;DHT22;1488;51.548;7.222;2022-09-14T07:55:10;26.80;73.60
2957;DHT22;1488;51.548;7.222;2022-09-14T07:57:38;26.80;73.60
2957;DHT22;1488;51.548;7.222;2022-09-14T08:00:06;26.80;73.60
2957;DHT22;1488;51.548;7.222;2022-09-14T08:02:35;26.80;73.60
2957;DHT22;1488;51.548;7.222;2022-09-14T08:05:02;26.80;73.60
2957;DHT22;1488;51.548;7.222;2022-09-14T08:07:29;26.80;73.60
2957;DHT22;1488;51.548;7.222;2022-09-14T08:09:56;26.80;73.60
2957;DHT22;1488;51.548;7.222;2022-09-14T08:12:25;26.80;73.70
2957;DHT22;1488;51.548;7.222;2022-09-14T08:14:52;26.80;73.70
2957;DHT22;1488;51.548;7.222;2022-09-14T08:17:19;26.80;73.80
2957;DHT22;1488;51.548;7.222;2022-09-14T08:19:48;26.80;73.90
2957;DHT22;1488;51.548;7.222;2022-09-14T08:22:16;26.80;74.00
2957;DHT22;1488;51.548;7.222;2022-09-14T08:24:43;26.80;74.20
2957;DHT22;1488;51.548;7.222;2022-09-14T08:27:11;26.80;74.20
2957;DHT22;1488;51.548;7.222;2022-09-14T08:29:39;26.80;74.20
2957;DHT22;1488;51.548;7.222;2022-09-14T08:32:06;26.80;74.20
2957;DHT22;1488;51.548;7.222;2022-09-14T08:34:33;26.80;74.20
2957;DHT22;1488;51.548;7.222;2022-09-14T08:37:00;26.80;74.20
2957;DHT22;1488;51.548;7.222;2022-09-14T08:39:28;26.80;74.20
2957;DHT22;1488;51.548;7.222;2022-09-14T08:41:57;26.80;74.20
2957;DHT22;1488;51.548;7.222;2022-09-14T08:44:29;26.80;74.50
2957;DHT22;1488;51.548;7.222;2022-09-14T08:47:03;26.80;74.50
2957;DHT22;1488;51.548;7.222;2022-09-14T08:49:38;26.80;74.30
2957;DHT22;1488;51.548;7.222;2022-09-14T08:52:12;26.90;74.30
2957;DHT22;1488;51.548;7.222;2022-09-14T08:54:41;26.80;74.20
2957;DHT22;1488;51.548;7.222;2022-09-14T08:57:15;26.90;74.40
2957;DHT22;1488;51.548;7.222;2022-09-14T08:59:50;26.90;74.30
2957;DHT22;1488;51.548;7.222;2022-09-14T09:02:29;26.90;74.20
2957;DHT22;1488;51.548;7.222;2022-09-14T09:05:13;26.90;74.20
2957;DHT22;1488;51.548;7.222;2022-09-14T09:07:52;26.90;74.20
2957;DHT22;1488;51.548;7.222;2022-09-14T09:10:21;26.90;74.10
2957;DHT22;1488;51.548;7.222;2022-09-14T09:12:53;26.80;74.00
2957;DHT22;1488;51.548;7.222;2022-09-14T09:15:22;26.80;73.90
2957;DHT22;1488;51.548;7.222;2022-09-14T09:17:54;26.80;73.90
2957;DHT22;1488;51.548;7.222;2022-09-14T09:20:26;26.80;73.90
2957;DHT22;1488;51.548;7.222;2022-09-14T09:23:03;26.90;74.00
2957;DHT22;1488;51.548;7.222;2022-09-14T09:25:48;26.90;73.90
2957;DHT22;1488;51.548;7.222;2022-09-14T09:28:15;26.90;73.90
2957;DHT22;1488;51.548;7.222;2022-09-14T09:30:43;26.80;73.80
2957;DHT22;1488;51.548;7.222;2022-09-14T09:33:15;26.90;74.70
2957;DHT22;1488;51.548;7.222;2022-09-14T09:35:43;26.90;73.80
2957;DHT22;1488;51.548;7.222;2022-09-14T09:38:13;26.90;73.80
2957;DHT22;1488;51.548;7.222;2022-09-14T09:40:45;26.80;73.60
2957;DHT22;1488;51.548;7.222;2022-09-14T09:43:14;26.90;73.80
2957;DHT22;1488;51.548;7.222;2022-09-14T09:45:50;26.80;73.70
2957;DHT22;1488;51.548;7.222;2022-09-14T09:48:23;26.90;73.70
2957;DHT22;1488;51.548;7.222;2022-09-14T09:51:03;26.80;73.60
2957;DHT22;1488;51.548;7.222;2022-09-14T09:53:32;26.90;73.70
2957;DHT22;1488;51.548;7.222;2022-09-14T09:56:00;26.80;73.60
2957;DHT22;1488;51.548;7.222;2022-09-14T09:58:30;26.80;73.60
2957;DHT22;1488;51.548;7.222;2022-09-14T10:00:59;26.80;73.50
2957;DHT22;1488;51.548;7.222;2022-09-14T10:03:31;26.80;73.50
2957;DHT22;1488;51.548;7.222;2022-09-14T10:06:02;26.90;73.60
2957;DHT22;1488;51.548;7.222;2022-09-14T10:08:30;26.90;73.70
2957;DHT22;1488;51.548;7.222;2022-09-14T10:11:01;26.80;73.60
2957;DHT22;1488;51.548;7.222;2022-09-14T10:13:30;26.80;73.50
2957;DHT22;1488;51.548;7.222;2022-09-14T10:16:14;26.80;73.50
2957;DHT22;1488;51.548;7.222;2022-09-14T10:18:46;26.90;73.50
2957;DHT22;1488;51.548;7.222;2022-09-14T10:21:15;26.80;73.50
2957;DHT22;1488;51.548;7.222;2022-09-14T10:23:43;26.80;73.40
2957;DHT22;1488;51.548;7.222;2022-09-14T10:26:33;26.80;73.40
2957;DHT22;1488;51.548;7.222;2022-09-14T10:29:28;26.80;73.30
2957;DHT22;1488;51.548;7.222;2022-09-14T10:32:00;26.80;73.30
2957;DHT22;1488;51.548;7.222;2022-09-14T10:34:31;26.80;73.50
2957;DHT22;1488;51.548;7.222;2022-09-14T10:37:08;26.80;73.40
2957;DHT22;1488;51.548;7.222;2022-09-14T10:39:41;26.80;73.30
2957;DHT22;1488;51.548;7.222;2022-09-14T10:42:16;26.80;73.30
2957;DHT22;1488;51.548;7.222;2022-09-14T10:44:58;26.80;73.30
2957;DHT22;1488;51.548;7.222;2022-09-14T10:47:42;26.80;73.20
2957;DHT22;1488;51.548;7.222;2022-09-14T10:50:25;26.80;73.20
2957;DHT22;1488;51.548;7.222;2022-09-14T10:53:03;26.80;73.20
2957;DHT22;1488;51.548;7.222;2022-09-14T10:55:37;26.80;73.30
2957;DHT22;1488;51.548;7.222;2022-09-14T10:58:21;26.80;73.10
2957;DHT22;1488;51.548;7.222;2022-09-14T11:00:59;26.80;73.10
2957;DHT22;1488;51.548;7.222;2022-09-14T11:03:40;26.80;73.10
2957;DHT22;1488;51.548;7.222;2022-09-14T11:06:19;26.80;73.10
2957;DHT22;1488;51.548;7.222;2022-09-14T11:08:51;26.80;73.10
2957;DHT22;1488;51.548;7.222;2022-09-14T11:11:30;26.80;73.20
2957;DHT22;1488;51.548;7.222;2022-09-14T11:14:10;26.80;73.20
2957;DHT22;1488;51.548;7.222;2022-09-14T11:16:55;26.80;73.30
2957;DHT22;1488;51.548;7.222;2022-09-14T11:19:34;26.70;73.20
2957;DHT22;1488;51.548;7.222;2022-09-14T11:22:11;26.70;73.30
2957;DHT22;1488;51.548;7.222;2022-09-14T11:24:43;26.70;73.50
2957;DHT22;1488;51.548;7.222;2022-09-14T11:27:21;26.70;73.30
2957;DHT22;1488;51.548;7.222;2022-09-14T11:29:51;26.60;73.30
2957;DHT22;1488;51.548;7.222;2022-09-14T11:32:22;26.60;73.30
2957;DHT22;1488;51.548;7.222;2022-09-14T11:34:53;26.60;73.20
2957;DHT22;1488;51.548;7.222;2022-09-14T11:37:30;26.60;73.00
2957;DHT22;1488;51.548;7.222;2022-09-14T11:40:04;26.50;72.80
2957;DHT22;1488;51.548;7.222;2022-09-14T11:42:38;26.60;73.00
2957;DHT22;1488;51.548;7.222;2022-09-14T11:45:12;26.50;72.90
2957;DHT22;1488;51.548;7.222;2022-09-14T11:47:43;26.50;73.80
2957;DHT22;1488;51.548;7.222;2022-09-14T11:50:17;26.50;72.90
2957;DHT22;1488;51.548;7.222;2022-09-14T11:52:49;26.50;72.90
2957;DHT22;1488;51.548;7.222;2022-09-14T11:55:20;26.50;73.00
2957;DHT22;1488;51.548;7.222;2022-09-14T11:57:47;26.50;73.00
2957;DHT22;1488;51.548;7.222;2022-09-14T12:00:43;26.50;73.10
2957;DHT22;1488;51.548;7.222;2022-09-14T12:03:16;26.60;73.10
2957;DHT22;1488;51.548;7.222;2022-09-14T12:05:43;26.50;73.50
2957;DHT22;1488;51.548;7.222;2022-09-14T12:08:39;26.50;73.40
2957;DHT22;1488;51.548;7.222;2022-09-14T12:11:33;26.50;73.20
2957;DHT22;1488;51.548;7.222;2022-09-14T12:14:29;26.50;73.10
2957;DHT22;1488;51.548;7.222;2022-09-14T12:17:15;26.50;73.20
2957;DHT22;1488;51.548;7.222;2022-09-14T12:19:44;26.50;73.40
2957;DHT22;1488;51.548;7.222;2022-09-14T12:22:23;26.50;76.80
2957;DHT22;1488;51.548;7.222;2022-09-14T12:25:14;26.50;79.80
2957;DHT22;1488;51.548;7.222;2022-09-14T12:27:44;26.50;82.40
2957;DHT22;1488;51.548;7.222;2022-09-14T12:33:42;26.50;79.00
2957;DHT22;1488;51.548;7.222;2022-09-14T12:36:54;26.40;78.00
2957;DHT22;1488;51.548;7.222;2022-09-14T12:39:08;26.40;77.60
2957;DHT22;1488;51.548;7.222;2022-09-14T12:42:04;26.40;77.30
2957;DHT22;1488;51.548;7.222;2022-09-14T12:44:34;26.40;77.30
2957;DHT22;1488;51.548;7.222;2022-09-14T12:50:17;26.40;76.60
2957;DHT22;1488;51.548;7.222;2022-09-14T12:58:46;26.40;76.10
2957;DHT22;1488;51.548;7.222;2022-09-14T13:01:31;26.40;75.90
2957;DHT22;1488;51.548;7.222;2022-09-14T13:04:02;26.40;76.70
2957;DHT22;1488;51.548;7.222;2022-09-14T13:06:33;26.40;75.70
2957;DHT22;1488;51.548;7.222;2022-09-14T13:09:01;26.40;75.90
2957;DHT22;1488;51.548;7.222;2022-09-14T13:11:31;26.50;75.80
2957;DHT22;1488;51.548;7.222;2022-09-14T13:14:01;26.50;75.70
2957;DHT22;1488;51.548;7.222;2022-09-14T13:16:37;26.50;75.60
2957;DHT22;1488;51.548;7.222;2022-09-14T13:19:15;26.60;75.70
2957;DHT22;1488;51.548;7.222;2022-09-14T13:21:45;26.50;75.30
2957;DHT22;1488;51.548;7.222;2022-09-14T13:24:29;26.50;75.30
2957;DHT22;1488;51.548;7.222;2022-09-14T13:26:58;26.60;75.20
2957;DHT22;1488;51.548;7.222;2022-09-14T13:29:28;26.50;75.10
2957;DHT22;1488;51.548;7.222;2022-09-14T13:31:57;26.60;75.10
2957;DHT22;1488;51.548;7.222;2022-09-14T13:34:27;26.60;74.90
2957;DHT22;1488;51.548;7.222;2022-09-14T13:36:55;26.60;74.80
2957;DHT22;1488;51.548;7.222;2022-09-14T13:39:25;26.60;74.80
2957;DHT22;1488;51.548;7.222;2022-09-14T13:41:54;26.60;74.70
2957;DHT22;1488;51.548;7.222;2022-09-14T13:44:27;26.60;74.70
2957;DHT22;1488;51.548;7.222;2022-09-14T13:46:56;26.60;74.70
2957;DHT22;1488;51.548;7.222;2022-09-14T13:49:24;26.60;74.60
2957;DHT22;1488;51.548;7.222;2022-09-14T13:51:51;26.60;74.60
2957;DHT22;1488;51.548;7.222;2022-09-14T13:54:27;26.60;74.60
2957;DHT22;1488;51.548;7.222;2022-09-14T13:57:15;26.60;74.30
2957;DHT22;1488;51.548;7.222;2022-09-14T14:02:48;26.60;74.60
2957;DHT22;1488;51.548;7.222;2022-09-14T14:05:20;26.60;74.70
2957;DHT22;1488;51.548;7.222;2022-09-14T14:07:48;26.60;74.60
2957;DHT22;1488;51.548;7.222;2022-09-14T14:10:28;26.50;74.40
2957;DHT22;1488;51.548;7.222;2022-09-14T14:12:56;26.60;74.50
2957;DHT22;1488;51.548;7.222;2022-09-14T14:15:37;26.60;74.50
2957;DHT22;1488;51.548;7.222;2022-09-14T14:18:34;26.70;74.40
2957;DHT22;1488;51.548;7.222;2022-09-14T14:21:12;26.70;74.30
2957;DHT22;1488;51.548;7.222;2022-09-14T14:23:39;26.60;74.50
2957;DHT22;1488;51.548;7.222;2022-09-14T14:26:08;26.60;74.40
2957;DHT22;1488;51.548;7.222;2022-09-14T14:28:36;26.60;74.30
2957;DHT22;1488;51.548;7.222;2022-09-14T14:31:03;26.60;74.30
2957;DHT22;1488;51.548;7.222;2022-09-14T14:33:42;26.60;74.30
2957;DHT22;1488;51.548;7.222;2022-09-14T14:36:09;26.60;74.20
2957;DHT22;1488;51.548;7.222;2022-09-14T14:38:36;26.60;74.30
2957;DHT22;1488;51.548;7.222;2022-09-14T14:41:05;26.60;74.20
2957;DHT22;1488;51.548;7.222;2022-09-14T14:43:33;26.60;74.20
2957;DHT22;1488;51.548;7.222;2022-09-14T14:46:00;26.60;74.20
2957;DHT22;1488;51.548;7.222;2022-09-14T14:48:28;26.60;74.20
2957;DHT22;1488;51.548;7.222;2022-09-14T14:50:57;26.60;74.20
2957;DHT22;1488;51.548;7.222;2022-09-14T14:53:24;26.60;74.20
2957;DHT22;1488;51.548;7.222;2022-09-14T14:55:51;26.60;74.10
2957;DHT22;1488;51.548;7.222;2022-09-14T14:58:19;26.70;74.10
2957;DHT22;1488;51.548;7.222;2022-09-14T15:00:46;26.70;74.20
2957;DHT22;1488;51.548;7.222;2022-09-14T15:03:13;26.60;74.10
2957;DHT22;1488;51.548;7.222;2022-09-14T15:05:41;26.60;74.00
2957;DHT22;1488;51.548;7.222;2022-09-14T15:08:10;26.60;74.00
2957;DHT22;1488;51.548;7.222;2022-09-14T15:10:37;26.70;74.20
2957;DHT22;1488;51.548;7.222;2022-09-14T15:13:05;26.70;74.20
2957;DHT22;1488;51.548;7.222;2022-09-14T15:15:32;26.70;74.30
2957;DHT22;1488;51.548;7.222;2022-09-14T15:17:58;26.70;74.40
2957;DHT22;1488;51.548;7.222;2022-09-14T15:20:26;26.70;74.50
2957;DHT22;1488;51.548;7.222;2022-09-14T15:22:53;26.70;74.70
2957;DHT22;1488;51.548;7.222;2022-09-14T15:25:21;26.70;74.80
2957;DHT22;1488;51.548;7.222;2022-09-14T15:27:47;26.70;74.80
2957;DHT22;1488;51.548;7.222;2022-09-14T15:30:15;26.70;74.90
2957;DHT22;1488;51.548;7.222;2022-09-14T15:32:42;26.70;74.90
2957;DHT22;1488;51.548;7.222;2022-09-14T15:35:11;26.70;75.00
2957;DHT22;1488;51.548;7.222;2022-09-14T15:37:38;26.70;75.00
2957;DHT22;1488;51.548;7.222;2022-09-14T15:40:06;26.70;75.10
2957;DHT22;1488;51.548;7.222;2022-09-14T15:42:34;26.70;75.10
2957;DHT22;1488;51.548;7.222;2022-09-14T15:45:02;26.70;76.10
2957;DHT22;1488;51.548;7.222;2022-09-14T15:47:28;26.70;75.30
2957;DHT22;1488;51.548;7.222;2022-09-14T15:49:55;26.70;75.30
2957;DHT22;1488;51.548;7.222;2022-09-14T15:52:27;26.70;75.20
2957;DHT22;1488;51.548;7.222;2022-09-14T15:54:53;26.70;75.30
2957;DHT22;1488;51.548;7.222;2022-09-14T15:57:20;26.70;75.30
2957;DHT22;1488;51.548;7.222;2022-09-14T15:59:48;26.60;75.20
2957;DHT22;1488;51.548;7.222;2022-09-14T16:02:15;26.70;75.20
2957;DHT22;1488;51.548;7.222;2022-09-14T16:04:44;26.70;75.20
2957;DHT22;1488;51.548;7.222;2022-09-14T16:07:11;26.70;75.20
2957;DHT22;1488;51.548;7.222;2022-09-14T16:09:39;26.70;75.20
2957;DHT22;1488;51.548;7.222;2022-09-14T16:12:07;26.70;75.20
2957;DHT22;1488;51.548;7.222;2022-09-14T16:14:34;26.70;75.20
2957;DHT22;1488;51.548;7.222;2022-09-14T16:17:02;26.70;75.10
2957;DHT22;1488;51.548;7.222;2022-09-14T16:19:30;26.60;75.00
2957;DHT22;1488;51.548;7.222;2022-09-14T16:21:57;26.70;75.90
2957;DHT22;1488;51.548;7.222;2022-09-14T16:24:24;26.70;75.10
2957;DHT22;1488;51.548;7.222;2022-09-14T16:26:51;26.70;75.10
2957;DHT22;1488;51.548;7.222;2022-09-14T16:29:20;26.60;75.00
2957;DHT22;1488;51.548;7.222;2022-09-14T16:31:48;26.60;75.00
2957;DHT22;1488;51.548;7.222;2022-09-14T16:34:19;26.60;75.00
2957;DHT22;1488;51.548;7.222;2022-09-14T16:36:46;26.70;75.00
2957;DHT22;1488;51.548;7.222;2022-09-14T16:39:16;26.60;75.20
2957;DHT22;1488;51.548;7.222;2022-09-14T16:41:43;26.60;75.30
2957;DHT22;1488;51.548;7.222;2022-09-14T16:44:12;26.70;75.20
2957;DHT22;1488;51.548;7.222;2022-09-14T16:46:40;26.60;75.50
2957;DHT22;1488;51.548;7.222;2022-09-14T16:49:07;26.60;75.40
2957;DHT22;1488;51.548;7.222;2022-09-14T16:51:35;26.60;75.20
2957;DHT22;1488;51.548;7.222;2022-09-14T16:54:03;26.60;75.20
2957;DHT22;1488;51.548;7.222;2022-09-14T16:56:31;26.60;75.20
2957;DHT22;1488;51.548;7.222;2022-09-14T16:58:59;26.60;75.10
2957;DHT22;1488;51.548;7.222;2022-09-14T17:01:28;26.60;75.10
2957;DHT22;1488;51.548;7.222;2022-09-14T17:03:56;26.60;75.10
2957;DHT22;1488;51.548;7.222;2022-09-14T17:06:25;26.50;75.00
2957;DHT22;1488;51.548;7.222;2022-09-14T17:08:56;26.60;75.30
2957;DHT22;1488;51.548;7.222;2022-09-14T17:11:25;26.30;74.50